Time;durP1;ratioP1;P1;durP2;ratioP2;P2;SDS_P1;SDS_P2;PMS_P1;PMS_P2;Temp;Humidity;BMP_temperature;BMP_pressure;BME280_temperature;BME280_humidity;BME280_pressure;Samples;Min_cycle;Max_cycle;Signal;HPM_P1;HPM_P2
2022/01/22 00:02:08;;;;;;;18.80;13.20;;;2.00;99.90;;;0.46;98.80;99085.44;5075334;28;20476;-71
2022/01/22 00:04:36;;;;;;;17.90;13.27;;;2.00;99.90;;;0.46;98.61;99073.97;5075428;28;20448;-71
2022/01/22 00:07:06;;;;;;;15.20;11.80;;;2.10;99.90;;;0.51;98.20;99069.94;5075350;28;20528;-71
2022/01/22 00:09:38;;;;;;;13.27;11.77;;;2.10;99.90;;;0.54;97.57;99074.19;5075148;28;20492;-71
2022/01/22 00:12:11;;;;;;;18.10;12.73;;;2.10;99.90;;;0.52;98.32;99068.97;5057361;28;20440;-71
2022/01/22 00:14:39;;;;;;;11.93;10.27;;;2.10;99.90;;;0.55;98.13;99066.09;5075709;28;20433;-72
2022/01/22 00:17:07;;;;;;;16.27;13.23;;;2.10;99.90;;;0.47;97.97;99049.06;5075270;28;20448;-71
2022/01/22 00:19:34;;;;;;;14.03;11.47;;;2.10;99.90;;;0.55;98.42;99052.78;5075101;28;20452;-72
2022/01/22 00:22:02;;;;;;;15.60;13.50;;;2.10;99.90;;;0.52;98.51;99055.66;5074133;28;20525;-71
2022/01/22 00:24:36;;;;;;;13.80;11.80;;;2.10;99.90;;;0.53;98.93;99052.06;5073934;28;20472;-72
2022/01/22 00:27:05;;;;;;;17.37;13.50;;;2.10;99.90;;;0.46;98.78;99055.34;5073350;28;20433;-71
2022/01/22 00:29:32;;;;;;;14.30;10.63;;;2.10;99.90;;;0.44;98.83;99043.97;5073843;28;20552;-73
2022/01/22 00:31:59;;;;;;;15.00;12.03;;;2.10;99.90;;;0.43;99.18;99051.13;5056861;28;20451;-72
2022/01/22 00:34:27;;;;;;;12.57;10.87;;;2.00;99.90;;;0.43;99.34;99051.13;5074676;28;20516;-72
2022/01/22 00:36:54;;;;;;;11.57;10.30;;;2.00;99.90;;;0.35;99.62;99051.75;5074369;28;20455;-72
2022/01/22 00:39:21;;;;;;;12.90;9.37;;;2.00;99.90;;;0.43;99.05;99056.44;5074702;28;20523;-73
2022/01/22 00:41:48;;;;;;;13.70;10.60;;;2.00;99.90;;;0.40;98.73;99051.38;5056830;28;20473;-73
2022/01/22 00:44:15;;;;;;;12.33;9.53;;;2.00;99.90;;;0.44;98.76;99042.19;5074641;28;20433;-73
2022/01/22 00:46:42;;;;;;;14.03;11.43;;;2.00;99.90;;;0.31;99.10;99041.47;5074639;28;20430;-73
2022/01/22 00:49:09;;;;;;;13.23;10.30;;;2.00;99.90;;;0.42;98.37;99034.31;5056493;28;21026;-73
2022/01/22 00:51:37;;;;;;;11.63;10.33;;;2.00;99.90;;;0.32;98.41;99021.91;5074401;28;20437;-74
2022/01/22 00:54:05;;;;;;;12.60;11.03;;;2.00;99.90;;;0.38;98.72;99048.84;5074298;28;20434;-75
2022/01/22 00:56:32;;;;;;;12.53;10.70;;;2.00;99.90;;;0.35;98.48;99038.47;5074890;28;20450;-72
2022/01/22 00:58:59;;;;;;;12.07;9.80;;;2.00;99.90;;;0.45;98.12;99040.34;5074775;28;20439;-72
2022/01/22 01:01:26;;;;;;;11.10;8.00;;;2.00;99.90;;;0.46;97.99;99044.72;5056649;28;20430;-73
2022/01/22 01:03:53;;;;;;;9.90;8.60;;;2.00;99.90;;;0.47;97.86;99039.25;5075033;28;20445;-73
2022/01/22 01:06:20;;;;;;;9.33;8.40;;;2.10;99.90;;;0.43;98.01;99035.16;5056784;28;20441;-73
2022/01/22 01:08:49;;;;;;;12.50;8.73;;;2.00;99.90;;;-0.06;97.76;98960.25;5056934;28;20469;-74
2022/01/22 01:11:17;;;;;;;10.33;8.70;;;2.00;99.90;;;0.38;98.07;99042.66;5074415;28;20441;-73
2022/01/22 01:13:48;;;;;;;11.47;9.67;;;2.00;99.90;;;0.46;98.44;99056.19;5074660;28;20446;-75
2022/01/22 01:16:19;;;;;;;12.20;10.50;;;2.00;99.90;;;0.40;97.93;99049.56;5056124;28;20468;-75
2022/01/22 01:32:39;;;;;;;11.00;9.50;;;2.00;99.90;;;0.55;97.48;99049.28;5072151;28;20580;-71
2022/01/22 01:35:08;;;;;;;13.03;10.37;;;2.10;99.90;;;0.56;97.82;99040.31;5056520;28;20769;-72
2022/01/22 01:37:35;;;;;;;16.30;11.70;;;2.10;99.90;;;0.44;97.44;99030.69;5073570;28;20445;-71
2022/01/22 01:40:08;;;;;;;11.50;10.27;;;2.10;99.90;;;0.56;97.74;99049.16;5074058;28;20536;-72
2022/01/22 01:42:44;;;;;;;11.00;9.57;;;2.10;99.90;;;0.57;97.29;99044.66;5057125;28;20487;-72
2022/01/22 01:45:11;;;;;;;12.40;10.47;;;2.10;99.90;;;0.60;97.34;99040.91;5073586;28;20441;-72
2022/01/22 01:47:41;;;;;;;13.37;11.50;;;2.10;99.90;;;0.51;97.24;99027.38;5072405;28;20441;-73
2022/01/22 01:50:09;;;;;;;11.60;10.37;;;2.20;99.90;;;0.66;97.43;99040.41;5073488;28;20564;-72
2022/01/22 01:52:43;;;;;;;13.77;10.60;;;2.20;99.90;;;0.63;97.36;99035.34;5073303;28;20856;-72
2022/01/22 01:55:15;;;;;;;14.30;12.10;;;2.20;99.90;;;0.59;97.87;99028.59;5073707;28;20438;-72
2022/01/22 01:57:43;;;;;;;14.10;11.50;;;2.20;99.90;;;0.65;97.50;99033.38;5073507;28;20437;-72
2022/01/22 02:00:17;;;;;;;11.80;10.50;;;2.20;99.90;;;0.72;97.23;99031.94;5073510;28;20464;-72
2022/01/22 02:02:46;;;;;;;12.13;10.17;;;2.30;99.90;;;0.72;97.09;99044.38;5055936;28;20532;-72
2022/01/22 02:05:14;;;;;;;13.10;10.33;;;2.30;99.90;;;0.62;96.83;99023.00;5074006;28;20978;-73
2022/01/22 02:07:43;;;;;;;12.20;10.03;;;2.30;99.90;;;0.64;97.30;99043.19;5055583;28;20819;-73
2022/01/22 02:10:18;;;;;;;12.40;10.30;;;2.20;99.90;;;0.74;97.33;99032.63;5073431;28;20960;-72
2022/01/22 02:13:37;;;;;;;13.13;11.23;;;2.30;99.90;;;0.69;96.65;99034.84;5073358;28;20772;-72
2022/01/22 02:24:02;;;;;;;11.83;9.33;;;2.30;99.90;;;0.73;96.87;99036.28;5084980;28;20445;-72
2022/01/22 02:26:29;;;;;;;17.57;11.67;;;2.30;99.90;;;0.68;96.77;99018.03;5074277;28;20433;-71
2022/01/22 02:28:56;;;;;;;13.00;11.30;;;2.30;99.90;;;0.77;96.87;99027.06;5073624;28;20466;-73
2022/01/22 02:31:31;;;;;;;13.10;11.27;;;2.30;99.90;;;0.76;96.79;99041.34;5078030;28;20524;-73
2022/01/22 02:34:07;;;;;;;12.37;10.40;;;2.30;99.90;;;0.79;96.89;99032.25;5077920;28;20443;-73
2022/01/22 02:36:40;;;;;;;10.67;9.17;;;2.30;99.90;;;0.78;96.77;99027.91;5074549;28;20464;-74
2022/01/22 02:39:13;;;;;;;14.10;11.77;;;2.30;99.90;;;0.77;96.80;99020.91;5073490;28;20460;-71
2022/01/22 02:41:46;;;;;;;14.03;11.70;;;2.30;99.90;;;0.72;97.05;99037.25;5073211;28;20441;-73
2022/01/22 02:44:21;;;;;;;13.63;10.60;;;2.30;99.90;;;0.80;96.56;99032.13;5073037;28;20889;-73
2022/01/22 02:46:50;;;;;;;9.30;7.23;;;2.40;99.90;;;0.83;96.69;99033.69;5076901;28;20464;-72
2022/01/22 02:49:17;;;;;;;13.83;10.67;;;2.40;99.90;;;0.80;97.00;99028.63;5075574;28;20453;-72
2022/01/22 02:51:46;;;;;;;12.53;10.80;;;2.40;99.90;;;0.77;97.19;99036.88;5058715;28;20533;-73
2022/01/22 02:54:13;;;;;;;15.23;11.93;;;2.30;99.90;;;0.74;97.28;99034.44;5076771;28;20434;-73
2022/01/22 02:56:39;;;;;;;16.37;11.83;;;2.30;99.90;;;0.78;97.12;99034.06;5075448;28;20861;-73
2022/01/22 02:59:06;;;;;;;13.30;10.87;;;2.40;99.90;;;0.87;97.28;99031.63;5059001;28;20437;-73
2022/01/22 03:01:33;;;;;;;14.57;12.33;;;2.40;99.90;;;0.79;97.37;99030.44;5076890;28;20433;-74
2022/01/22 03:04:00;;;;;;;18.33;14.20;;;2.40;99.90;;;0.82;97.24;99014.19;5076776;28;20480;-72
2022/01/22 03:06:27;;;;;;;14.50;12.80;;;2.40;99.90;;;0.84;96.76;99019.41;5077575;28;20528;-72
2022/01/22 03:08:56;;;;;;;16.93;13.73;;;2.40;99.90;;;0.83;97.26;99023.91;5075350;28;20819;-72
2022/01/22 03:11:28;;;;;;;17.80;13.90;;;2.40;99.90;;;0.91;97.07;99025.06;5058451;28;21007;-72
2022/01/22 03:16:55;;;;;;;22.60;16.50;;;2.40;99.90;;;0.79;97.44;99034.94;5076985;28;20969;-72
2022/01/22 03:19:44;;;;;;;21.30;15.47;;;2.40;99.90;;;0.82;97.89;99037.31;5059017;28;20548;-72
2022/01/22 03:22:17;;;;;;;21.40;16.53;;;2.40;99.90;;;0.90;97.58;99042.84;5075077;28;20934;-72
2022/01/22 03:27:31;;;;;;;19.43;15.43;;;2.50;99.90;;;0.87;97.78;99044.94;5076674;28;20516;-74
2022/01/22 03:29:59;;;;;;;21.77;16.13;;;2.40;99.90;;;0.83;98.14;99037.22;5076497;28;20461;-73
2022/01/22 03:32:31;;;;;;;21.40;16.00;;;2.40;99.90;;;0.83;98.28;99050.50;5058556;28;20484;-74
2022/01/22 03:35:07;;;;;;;19.67;13.57;;;2.40;99.90;;;0.91;98.41;99036.56;5075549;28;20517;-73
2022/01/22 03:37:34;;;;;;;21.40;15.90;;;2.50;99.90;;;0.94;98.47;99046.09;5076866;28;20444;-73
2022/01/22 03:40:03;;;;;;;21.40;16.80;;;2.50;99.90;;;0.92;98.51;99042.72;5058193;28;20852;-73
2022/01/22 03:42:30;;;;;;;23.27;17.97;;;2.50;99.90;;;0.88;98.86;99049.28;5076011;28;20528;-74
2022/01/22 03:44:57;;;;;;;22.47;17.60;;;2.50;99.90;;;0.87;99.11;99045.75;5076339;28;20923;-74
2022/01/22 03:47:24;;;;;;;20.90;16.57;;;2.50;99.90;;;0.89;99.25;99037.66;5075937;28;20524;-74
2022/01/22 03:49:51;;;;;;;29.10;18.37;;;2.40;99.90;;;0.90;99.65;99042.00;5075941;28;20555;-72
2022/01/22 03:52:18;;;;;;;20.67;14.70;;;2.40;99.90;;;0.93;99.58;99047.06;5074437;28;20495;-70
2022/01/22 03:54:45;;;;;;;22.67;16.83;;;2.50;99.90;;;0.89;99.78;99058.94;5075755;28;20453;-71
2022/01/22 03:57:13;;;;;;;26.10;18.00;;;2.50;99.90;;;0.88;99.95;99046.63;5075367;28;20444;-71
2022/01/22 03:59:41;;;;;;;20.90;16.30;;;2.50;99.90;;;0.87;100.00;99053.75;5075724;28;20445;-71
2022/01/22 04:04:56;;;;;;;27.20;18.10;;;2.40;99.90;;;0.81;100.00;99044.44;5074464;28;20456;-72
2022/01/22 04:10:08;;;;;;;25.90;17.57;;;2.40;99.90;;;0.84;100.00;99040.69;5075460;28;20969;-72
2022/01/22 04:12:46;;;;;;;24.47;17.47;;;2.40;99.90;;;0.90;100.00;99042.84;5075127;28;20765;-72
2022/01/22 04:15:17;;;;;;;29.00;17.90;;;2.40;99.90;;;0.85;100.00;99050.38;5075934;28;20565;-72
2022/01/22 04:26:05;;;;;;;26.67;18.33;;;2.40;99.90;;;0.89;100.00;99040.31;5075211;28;20936;-73
2022/01/22 04:28:33;;;;;;;28.70;17.20;;;2.40;99.90;;;0.88;100.00;99044.78;5075118;28;20465;-72
2022/01/22 04:31:00;;;;;;;23.80;16.23;;;2.50;99.90;;;0.87;100.00;99037.78;5057170;28;20443;-71
2022/01/22 04:33:27;;;;;;;29.77;19.77;;;2.50;99.90;;;0.86;100.00;99036.09;5075011;28;20990;-71
2022/01/22 04:35:54;;;;;;;29.27;17.33;;;2.40;99.90;;;0.83;100.00;99029.22;5056960;28;20494;-71
2022/01/22 04:38:21;;;;;;;26.10;18.10;;;2.50;99.90;;;0.93;100.00;99036.41;5074838;28;20453;-70
2022/01/22 04:40:48;;;;;;;20.53;14.80;;;2.50;99.90;;;0.88;100.00;99030.66;5075045;28;20433;-70
2022/01/22 04:43:15;;;;;;;25.60;17.43;;;2.50;99.90;;;0.94;100.00;99033.66;5074815;28;20524;-71
2022/01/22 04:45:52;;;;;;;26.90;18.33;;;2.50;99.90;;;0.62;100.00;98983.97;5074780;28;20485;-71
2022/01/22 04:48:42;;;;;;;22.70;16.30;;;2.50;99.90;;;0.95;100.00;99035.31;5057706;28;20889;-74
2022/01/22 04:57:03;;;;;;;22.90;16.70;;;2.50;99.90;;;0.95;100.00;99026.50;5011148;28;20436;-73
2022/01/22 04:59:30;;;;;;;20.80;15.37;;;2.50;99.90;;;0.99;100.00;99020.78;5059621;28;20567;-72
2022/01/22 05:01:59;;;;;;;23.93;16.80;;;2.50;99.90;;;0.58;100.00;98957.75;5073203;28;20441;-72
2022/01/22 05:04:26;;;;;;;25.77;18.73;;;2.50;99.90;;;0.96;100.00;99030.84;5056725;28;20476;-74
2022/01/22 05:06:53;;;;;;;24.53;16.53;;;2.50;99.90;;;1.02;100.00;99040.97;5074452;28;20517;-72
2022/01/22 05:09:19;;;;;;;24.37;17.33;;;2.60;99.90;;;0.95;100.00;99039.78;5072102;28;20494;-71
2022/01/22 05:11:46;;;;;;;24.60;17.00;;;2.50;99.90;;;0.95;100.00;99039.78;5073296;28;20437;-72
2022/01/22 05:14:13;;;;;;;22.20;15.53;;;2.50;99.90;;;1.04;100.00;99049.69;5074358;28;20976;-72
2022/01/22 05:16:40;;;;;;;19.70;15.20;;;2.60;99.90;;;0.97;100.00;99046.69;5073073;28;20452;-74
2022/01/22 05:19:13;;;;;;;22.43;16.10;;;2.60;99.90;;;1.00;100.00;99053.59;5074498;28;20972;-73
2022/01/22 05:21:41;;;;;;;23.17;15.73;;;2.60;99.90;;;0.99;100.00;99057.22;5074133;28;20434;-73
2022/01/22 05:24:13;;;;;;;24.40;16.00;;;2.60;99.90;;;1.09;99.85;99055.44;5056664;28;20925;-72
2022/01/22 05:27:16;;;;;;;19.77;16.13;;;2.60;99.90;;;1.02;99.76;99056.97;5072951;28;20805;-72
2022/01/22 05:30:02;;;;;;;19.97;15.00;;;2.60;99.90;;;1.04;99.35;99055.00;5056996;28;20785;-72
2022/01/22 05:32:38;;;;;;;21.40;15.77;;;2.60;99.90;;;1.09;99.18;99057.28;5056298;28;20464;-72
2022/01/22 05:37:51;;;;;;;21.50;16.30;;;2.60;99.90;;;0.67;98.41;98994.19;5075901;28;20441;-70
2022/01/22 05:40:19;;;;;;;18.53;14.53;;;2.60;99.90;;;1.11;98.65;99050.00;5081242;28;20448;-71
2022/01/22 05:42:47;;;;;;;23.70;16.13;;;2.60;99.90;;;1.14;98.66;99049.75;5080516;28;20426;-72
2022/01/22 05:45:14;;;;;;;18.37;14.70;;;2.70;99.90;;;0.79;98.10;99003.81;5079707;28;20532;-73
2022/01/22 05:47:41;;;;;;;19.00;14.73;;;2.70;99.90;;;1.10;98.28;99049.16;5082233;28;20497;-72
2022/01/22 05:50:15;;;;;;;19.20;14.30;;;2.70;99.90;;;1.09;98.23;99063.44;5076944;28;20461;-72
2022/01/22 05:52:54;;;;;;;19.53;13.83;;;2.70;99.90;;;1.09;98.29;99062.59;5060128;28;20505;-73
2022/01/22 06:01:07;;;;;;;17.93;12.90;;;2.60;99.90;;;0.96;98.33;99050.31;5015130;28;20448;-71
2022/01/22 06:03:34;;;;;;;21.90;14.80;;;2.60;99.90;;;1.06;98.77;99069.03;5015720;28;20450;-71
2022/01/22 06:06:04;;;;;;;23.07;15.87;;;2.60;99.90;;;1.04;99.03;99081.63;5026456;28;20995;-73
2022/01/22 06:08:33;;;;;;;19.30;13.87;;;2.60;99.90;;;0.97;98.99;99072.44;5086733;28;20441;-72
2022/01/22 06:11:09;;;;;;;18.00;14.20;;;2.60;99.90;;;1.06;98.89;99073.50;5077204;28;20469;-74
2022/01/22 06:13:44;;;;;;;16.57;13.00;;;2.60;99.90;;;1.05;98.50;99083.31;5065914;28;20945;-73
2022/01/22 06:16:11;;;;;;;18.47;14.90;;;2.60;99.90;;;0.98;98.32;99066.16;5075918;28;20429;-72
2022/01/22 06:18:38;;;;;;;20.73;15.00;;;2.60;99.90;;;0.49;98.49;98992.09;5058954;28;20456;-72
2022/01/22 06:21:08;;;;;;;20.03;14.63;;;2.60;99.90;;;1.02;98.70;99078.25;5080663;28;20425;-72
2022/01/22 06:23:36;;;;;;;16.53;12.30;;;2.60;99.90;;;0.94;98.64;99080.69;5062690;28;20466;-71
2022/01/22 06:26:04;;;;;;;18.63;13.70;;;2.60;99.90;;;0.95;98.56;99071.72;5080325;28;20446;-70
2022/01/22 06:28:31;;;;;;;20.57;14.37;;;2.50;99.90;;;0.91;98.98;99064.97;5080772;28;20517;-79
2022/01/22 06:31:00;;;;;;;18.77;13.90;;;2.50;99.90;;;0.99;98.99;99078.50;5080939;28;20544;-80
2022/01/22 06:33:27;;;;;;;18.20;12.70;;;2.50;99.90;;;0.97;98.87;99078.63;5081974;28;20437;-78
2022/01/22 06:35:54;;;;;;;15.93;11.90;;;2.50;99.90;;;1.04;98.85;99086.94;5081328;28;20482;-78
2022/01/22 06:38:23;;;;;;;19.63;13.37;;;2.60;99.90;;;0.93;99.32;99085.19;5080665;28;20875;-79
2022/01/22 06:43:34;;;;;;;19.20;14.80;;;2.50;99.90;;;0.91;99.55;99099.56;5081798;28;20437;-81
2022/01/22 06:46:01;;;;;;;19.70;15.20;;;2.50;99.90;;;0.86;99.60;99094.63;5079889;28;20924;-77
2022/01/22 06:48:28;;;;;;;18.63;13.10;;;2.40;99.90;;;1.06;99.31;99092.97;5079774;28;20431;-77
2022/01/22 06:50:55;;;;;;;19.77;14.60;;;2.60;99.90;;;0.79;98.31;99038.41;5078981;28;20532;-74
2022/01/22 06:53:23;;;;;;;18.57;13.07;;;2.60;99.90;;;1.11;98.22;99098.75;5082168;28;20467;-77
2022/01/22 06:55:55;;;;;;;20.07;12.50;;;2.70;99.90;;;1.06;98.47;99094.78;5067263;28;20473;-75
2022/01/22 06:58:23;;;;;;;18.97;12.83;;;2.70;99.90;;;1.09;98.52;99098.03;5071278;28;20433;-76
2022/01/22 07:00:50;;;;;;;15.90;13.73;;;2.70;99.90;;;1.10;98.48;99115.69;5070360;28;20938;-77
2022/01/22 07:03:17;;;;;;;16.20;12.90;;;2.70;99.90;;;1.10;98.43;99122.84;5070412;28;20476;-77
2022/01/22 07:05:44;;;;;;;11.90;10.07;;;2.70;99.90;;;1.07;98.63;99115.97;5085341;28;20448;-77
2022/01/22 07:08:10;;;;;;;14.13;10.90;;;2.70;99.90;;;1.05;98.54;99109.94;5084479;28;20513;-75
2022/01/22 07:10:39;;;;;;;18.00;13.50;;;2.70;99.90;;;1.12;99.01;99121.75;5088530;28;20536;-76
2022/01/22 07:13:06;;;;;;;18.50;13.67;;;2.60;99.90;;;1.08;98.73;99120.31;5084927;28;20480;-77
2022/01/22 07:15:33;;;;;;;21.70;15.13;;;2.70;99.90;;;1.11;98.96;99128.03;5083782;28;20481;-77
2022/01/22 07:18:01;;;;;;;18.73;14.07;;;2.70;99.90;;;1.18;99.19;99119.56;5080998;28;20437;-78
2022/01/22 07:20:31;;;;;;;18.80;13.27;;;2.70;99.90;;;1.18;98.62;99120.38;5061662;28;20437;-74
2022/01/22 07:23:03;;;;;;;18.30;12.47;;;2.70;99.90;;;1.16;98.27;99126.84;5080250;28;20972;-78
2022/01/22 07:25:31;;;;;;;17.13;12.53;;;2.70;99.90;;;1.17;98.23;99123.19;5080099;28;20425;-79
2022/01/22 07:27:59;;;;;;;17.27;13.20;;;2.70;99.90;;;1.23;97.96;99112.88;5080830;28;20449;-79
2022/01/22 07:30:27;;;;;;;16.50;13.87;;;2.70;99.90;;;1.27;98.62;99124.09;5078340;28;20566;-79
2022/01/22 07:32:54;;;;;;;16.17;11.60;;;2.80;99.90;;;1.44;98.47;99114.69;5076803;28;20452;-76
2022/01/22 07:35:21;;;;;;;17.20;11.97;;;3.00;99.90;;;1.51;96.59;99136.34;5077957;28;20463;-79
2022/01/22 07:37:50;;;;;;;21.03;12.93;;;3.00;99.90;;;1.59;96.78;99136.50;5077177;28;20438;-77
2022/01/22 07:40:17;;;;;;;15.30;11.40;;;3.10;99.90;;;1.53;96.47;99118.41;5058567;28;20917;-78
2022/01/22 07:42:44;;;;;;;14.27;11.63;;;3.10;99.90;;;1.46;96.12;99117.25;5075974;28;20532;-78
2022/01/22 07:45:12;;;;;;;15.43;11.90;;;3.10;99.90;;;1.60;96.35;99145.38;5058123;28;20954;-79
2022/01/22 07:47:39;;;;;;;15.33;12.57;;;3.10;99.90;;;1.62;96.27;99143.41;5059568;28;20536;-78
2022/01/22 07:50:10;;;;;;;20.23;14.10;;;3.20;99.90;;;1.50;96.46;99145.31;5076481;28;20999;-77
2022/01/22 07:52:37;;;;;;;19.00;13.63;;;3.10;99.90;;;1.64;96.75;99141.44;5076726;28;20524;-77
2022/01/22 07:55:06;;;;;;;14.77;12.17;;;3.20;99.90;;;1.19;96.61;99073.31;5076300;28;20441;-77
2022/01/22 07:57:33;;;;;;;20.87;12.07;;;3.20;99.90;;;1.68;96.23;99149.06;5058345;28;20433;-78
2022/01/22 08:00:00;;;;;;;14.80;12.50;;;3.20;99.90;;;1.52;96.58;99144.22;5076549;28;20930;-73
2022/01/22 08:02:29;;;;;;;15.10;12.30;;;3.20;99.90;;;1.49;97.58;99159.59;5058247;28;20524;-72
2022/01/22 08:04:56;;;;;;;17.50;13.70;;;3.10;99.90;;;1.27;98.27;99134.75;5075349;28;20442;-75
2022/01/22 08:07:23;;;;;;;16.20;12.73;;;2.90;99.90;;;1.30;98.73;99150.50;5074332;28;20543;-73
2022/01/22 08:09:50;;;;;;;17.00;13.10;;;2.90;99.90;;;1.30;99.18;99155.81;5075875;28;20529;-73
2022/01/22 08:12:17;;;;;;;16.23;12.40;;;2.80;99.90;;;1.36;99.34;99154.44;5057827;28;20472;-75
2022/01/22 08:14:44;;;;;;;20.30;14.60;;;2.90;99.90;;;1.18;99.43;99141.69;5074346;28;20449;-75
2022/01/22 08:17:11;;;;;;;19.97;14.23;;;2.90;99.90;;;1.17;100.00;99157.81;5075591;28;20536;-75
2022/01/22 08:19:40;;;;;;;18.00;14.93;;;2.80;99.90;;;1.23;100.00;99176.78;5074064;28;20859;-75
2022/01/22 08:22:07;;;;;;;21.73;14.57;;;2.80;99.90;;;1.33;100.00;99171.53;5075695;28;20975;-74
2022/01/22 08:24:34;;;;;;;23.67;16.50;;;2.80;99.90;;;1.35;100.00;99166.91;5074050;28;20867;-76
2022/01/22 08:27:12;;;;;;;21.30;15.50;;;2.80;99.90;;;1.27;100.00;99172.03;5057102;28;20550;-76
2022/01/22 08:29:40;;;;;;;23.60;16.10;;;2.80;99.90;;;1.28;100.00;99181.69;5057848;28;20512;-73
2022/01/22 08:32:27;;;;;;;22.60;16.07;;;2.80;99.90;;;1.30;100.00;99182.44;5057438;28;20810;-75
2022/01/22 08:37:40;;;;;;;21.77;15.50;;;2.90;99.90;;;1.36;100.00;99197.91;5075220;28;20437;-74
2022/01/22 08:40:10;;;;;;;26.93;15.67;;;2.90;99.90;;;1.37;100.00;99191.59;5075192;28;20559;-76
2022/01/22 08:42:37;;;;;;;20.07;15.43;;;2.90;99.90;;;1.35;100.00;99190.88;5074356;28;20889;-74
2022/01/22 08:45:06;;;;;;;22.70;16.10;;;2.90;99.90;;;1.49;100.00;99203.03;5057529;28;20532;-75
2022/01/22 08:47:33;;;;;;;22.50;16.60;;;3.00;99.90;;;1.56;100.00;99198.03;5074880;28;20438;-74
2022/01/22 08:50:02;;;;;;;20.80;15.90;;;3.00;99.90;;;1.50;100.00;99207.41;5073906;28;20429;-75
2022/01/22 08:52:32;;;;;;;21.40;15.47;;;3.00;99.90;;;1.52;100.00;99208.13;5057274;28;20527;-75
2022/01/22 08:54:59;;;;;;;22.60;16.30;;;3.00;99.90;;;1.45;100.00;99198.13;5074843;28;20481;-72
2022/01/22 08:57:27;;;;;;;17.97;14.00;;;3.00;99.90;;;1.59;100.00;99203.13;5074228;28;20537;-73
2022/01/22 08:59:54;;;;;;;19.30;13.77;;;3.10;99.90;;;1.47;100.00;99204.16;5074442;28;20527;-73
2022/01/22 09:02:21;;;;;;;20.10;15.70;;;3.00;99.90;;;1.50;100.00;99203.91;5074633;28;20520;-73
2022/01/22 09:04:48;;;;;;;19.20;15.60;;;3.00;99.90;;;1.58;100.00;99206.75;5075045;28;20948;-76
2022/01/22 09:07:17;;;;;;;23.87;18.33;;;3.10;99.90;;;1.57;100.00;99199.75;5073805;28;20900;-77
2022/01/22 09:09:44;;;;;;;22.33;16.47;;;3.10;99.90;;;1.65;99.97;99207.94;5074612;28;20442;-76
2022/01/22 09:12:12;;;;;;;23.77;16.63;;;3.10;99.90;;;1.56;99.77;99206.03;5074437;28;20457;-75
2022/01/22 09:14:41;;;;;;;22.70;17.33;;;3.10;99.90;;;1.67;99.78;99207.81;5074466;28;20532;-77
2022/01/22 09:17:08;;;;;;;20.63;16.33;;;3.20;99.90;;;1.69;99.31;99219.19;5074792;28;20433;-81
2022/01/22 09:19:36;;;;;;;20.53;14.33;;;3.20;99.90;;;1.64;99.48;99229.38;5059898;28;20480;-80
2022/01/22 09:22:06;;;;;;;21.80;15.00;;;3.20;99.90;;;1.75;99.58;99226.66;5075301;28;20441;-80
2022/01/22 09:24:35;;;;;;;23.30;19.20;;;3.20;99.90;;;1.74;99.43;99232.09;5073061;28;20526;-80
2022/01/22 09:27:05;;;;;;;24.27;19.35;;;3.20;99.90;;;1.79;99.30;99229.94;5056823;28;20438;-79
2022/01/22 09:29:32;;;;;;;21.60;17.27;;;3.30;99.90;;;1.70;98.85;99232.38;5074773;28;20187;-81
2022/01/22 09:31:59;;;;;;;18.00;15.20;;;3.20;99.90;;;1.68;98.92;99229.00;5074350;28;20943;-73
2022/01/22 09:34:26;;;;;;;16.27;13.70;;;3.20;99.90;;;1.73;98.86;99235.75;5056039;28;20441;-77
2022/01/22 09:36:53;;;;;;;22.20;15.83;;;3.20;99.90;;;1.66;98.15;99225.63;5056092;28;20529;-74
2022/01/22 09:39:20;;;;;;;15.37;12.47;;;3.30;99.90;;;1.70;98.52;99237.69;5074073;28;20523;-75
2022/01/22 09:41:48;;;;;;;16.60;14.47;;;3.30;99.90;;;1.85;98.21;99245.38;5074598;28;20528;-75
2022/01/22 09:44:16;;;;;;;16.30;13.30;;;3.30;99.90;;;1.83;97.92;99248.19;5073909;28;20524;-75
2022/01/22 09:46:44;;;;;;;19.40;14.60;;;3.30;99.90;;;1.66;98.66;99233.63;5074214;28;20975;-75
2022/01/22 09:49:12;;;;;;;17.93;12.70;;;3.30;99.90;;;1.86;97.76;99241.75;5056657;28;20496;-76
2022/01/22 09:51:40;;;;;;;18.13;14.40;;;3.40;99.90;;;1.89;98.01;99257.47;5074094;28;20471;-76
2022/01/22 09:54:10;;;;;;;17.93;14.60;;;3.40;99.90;;;1.99;97.76;99252.25;5074283;28;20520;-77
2022/01/22 09:56:40;;;;;;;14.40;11.43;;;3.50;99.90;;;1.85;97.26;99256.03;5072792;28;20433;-78
2022/01/22 09:59:10;;;;;;;16.93;13.60;;;3.40;99.90;;;1.87;97.68;99262.09;5074620;28;20483;-76
2022/01/22 10:01:38;;;;;;;17.33;14.27;;;3.40;99.90;;;1.89;97.48;99268.13;5056201;28;20434;-78
2022/01/22 10:04:09;;;;;;;16.50;13.53;;;3.40;99.90;;;1.97;97.59;99276.34;5085208;28;20847;-75
2022/01/22 10:06:49;;;;;;;20.60;14.20;;;3.50;99.90;;;1.97;97.57;99275.50;5091095;28;20450;-75
2022/01/22 10:09:26;;;;;;;20.40;14.30;;;3.50;99.90;;;1.84;97.90;99257.03;5084084;28;20448;-77
2022/01/22 10:12:09;;;;;;;19.30;14.37;;;3.50;99.90;;;2.08;97.20;99274.59;5062769;28;20509;-77
2022/01/22 10:15:09;;;;;;;16.30;12.97;;;3.50;99.90;;;1.94;97.53;99265.94;5058516;28;20469;-77
2022/01/22 10:17:45;;;;;;;19.50;14.47;;;3.50;99.90;;;2.11;97.20;99269.00;5073876;28;20442;-81
2022/01/22 10:20:42;;;;;;;18.90;15.40;;;3.60;99.90;;;2.14;96.25;99267.91;5073938;28;20441;-81
2022/01/22 10:23:19;;;;;;;18.20;13.60;;;3.60;99.90;;;1.99;97.02;99249.56;4995557;28;20468;-75
2022/01/22 10:25:52;;;;;;;15.50;12.47;;;3.70;99.90;;;2.16;96.80;99276.63;5046285;28;20924;-76
2022/01/22 10:28:23;;;;;;;17.43;13.47;;;3.70;99.90;;;2.00;96.75;99264.59;5079727;28;20437;-82
2022/01/22 10:30:55;;;;;;;19.07;13.70;;;3.60;99.90;;;2.14;97.39;99276.75;5070601;28;20465;-85
2022/01/22 10:33:28;;;;;;;18.40;13.63;;;3.60;99.90;;;1.96;97.27;99253.31;5075847;28;20425;-83
2022/01/22 10:36:09;;;;;;;19.03;12.97;;;3.60;99.90;;;2.10;97.60;99269.97;5083668;28;20494;-85
2022/01/22 10:38:46;;;;;;;16.90;14.53;;;3.60;99.90;;;1.72;97.81;99196.75;5058277;28;20443;-84
2022/01/22 10:41:16;;;;;;;17.07;13.57;;;3.60;99.90;;;2.15;96.66;99267.75;5077349;28;20793;-88
2022/01/22 10:43:53;;;;;;;14.80;13.03;;;3.60;99.90;;;2.05;96.67;99256.22;5060084;28;20449;-84
2022/01/22 10:46:33;;;;;;;14.87;11.67;;;3.60;99.90;;;2.16;96.28;99258.78;5080725;28;20469;-86
2022/01/22 10:49:04;;;;;;;14.67;12.80;;;3.70;99.90;;;2.18;96.58;99256.00;5076724;28;20464;-88
2022/01/22 10:51:33;;;;;;;14.57;10.60;;;3.70;99.90;;;2.32;96.54;99250.31;5075484;28;20996;-84
2022/01/22 10:54:02;;;;;;;16.37;13.50;;;3.80;99.90;;;2.23;96.36;99256.44;5056005;28;20524;-83
2022/01/22 10:56:31;;;;;;;14.87;12.10;;;3.80;99.90;;;2.23;95.59;99259.09;5092740;28;20445;-85
2022/01/22 10:59:01;;;;;;;13.53;11.10;;;3.70;99.90;;;2.16;95.91;99265.94;5096854;28;20468;-83
2022/01/22 11:01:33;;;;;;;12.80;10.70;;;3.70;99.80;;;2.08;96.16;99262.09;5067324;28;20473;-89
2022/01/22 11:04:07;;;;;;;15.57;11.77;;;3.60;99.90;;;2.11;96.70;99253.00;5063223;28;20442;-89
2022/01/22 11:06:34;;;;;;;14.17;11.83;;;3.60;99.90;;;2.15;97.03;99251.75;5059519;28;20468;-87
2022/01/22 11:09:01;;;;;;;14.67;12.13;;;3.60;99.90;;;2.14;96.68;99255.41;5044082;28;20956;-84
2022/01/22 11:11:30;;;;;;;11.67;10.20;;;3.70;99.90;;;2.08;96.41;99235.44;5082878;28;20534;-91
2022/01/22 11:13:57;;;;;;;13.70;11.67;;;3.70;99.90;;;1.57;96.85;99170.44;5066136;28;20445;-92
2022/01/22 11:16:27;;;;;;;13.43;10.53;;;3.60;99.90;;;2.08;97.05;99251.44;5085985;28;20450;-90
2022/01/22 11:18:57;;;;;;;13.93;10.30;;;3.60;99.90;;;2.06;97.43;99247.22;5086172;28;21014;-91
2022/01/22 11:21:25;;;;;;;14.00;12.23;;;3.60;99.90;;;1.63;97.68;99177.94;5069206;28;20449;-92
2022/01/22 11:23:53;;;;;;;17.10;12.63;;;3.60;99.90;;;2.06;97.61;99237.41;5069142;28;20793;-82
2022/01/22 11:26:21;;;;;;;17.53;12.77;;;3.70;99.90;;;2.09;97.63;99241.63;5078717;28;20948;-87
2022/01/22 11:28:53;;;;;;;14.77;12.50;;;3.70;99.90;;;2.13;98.17;99248.38;5078548;28;20818;-86
2022/01/22 11:31:25;;;;;;;13.60;12.10;;;3.70;99.90;;;2.22;97.99;99254.75;5080778;28;20461;-83